createdAt,value
2023-02-05T00:02:06.501Z,2.65
2023-02-05T00:04:37.605Z,3.13
2023-02-05T00:07:07.472Z,2.75
2023-02-05T00:09:40.862Z,3.47
2023-02-05T00:12:10.144Z,2.80
2023-02-05T00:14:39.346Z,3.38
2023-02-05T00:17:08.504Z,2.97
2023-02-05T00:19:41.009Z,2.88
2023-02-05T00:22:10.067Z,3.65
2023-02-05T00:24:39.261Z,2.65
2023-02-05T00:27:10.185Z,3.53
2023-02-05T00:29:39.480Z,2.97
2023-02-05T00:32:11.163Z,3.42
2023-02-05T00:34:42.249Z,3.08
2023-02-05T00:37:11.425Z,4.33
2023-02-05T00:39:40.657Z,3.38
2023-02-05T00:42:09.828Z,2.70
2023-02-05T00:44:39.422Z,4.03
2023-02-05T00:47:09.538Z,3.70
2023-02-05T00:49:39.572Z,3.60
2023-02-05T00:52:10.421Z,3.72
2023-02-05T00:54:39.522Z,3.17
2023-02-05T00:57:08.998Z,3.30
2023-02-05T00:59:38.320Z,3.58
2023-02-05T01:02:07.434Z,3.30
2023-02-05T01:04:36.556Z,4.45
2023-02-05T01:07:06.201Z,4.68
2023-02-05T01:09:36.956Z,3.33
2023-02-05T01:12:06.416Z,3.33
2023-02-05T01:14:36.424Z,3.90
2023-02-05T01:17:05.549Z,3.67
2023-02-05T01:19:34.982Z,3.92
2023-02-05T01:22:04.331Z,6.00
2023-02-05T01:24:33.730Z,4.20
2023-02-05T01:27:05.270Z,3.78
2023-02-05T01:29:34.716Z,3.50
2023-02-05T01:32:04.110Z,4.00
2023-02-05T01:34:33.401Z,4.10
2023-02-05T01:37:03.202Z,4.05
2023-02-05T01:39:32.318Z,4.57
2023-02-05T01:42:01.598Z,3.83
2023-02-05T01:44:32.515Z,3.70
2023-02-05T01:47:01.669Z,3.97
2023-02-05T01:49:34.188Z,3.80
2023-02-05T01:52:05.229Z,4.05
2023-02-05T01:54:35.783Z,4.30
2023-02-05T01:57:07.240Z,3.67
2023-02-05T01:59:39.180Z,5.60
2023-02-05T02:02:08.334Z,4.30
2023-02-05T02:04:39.990Z,4.28
2023-02-05T02:09:39.149Z,3.08
2023-02-05T02:12:08.967Z,4.20
2023-02-05T02:14:41.908Z,3.83
2023-02-05T02:17:11.944Z,3.58
2023-02-05T02:19:43.540Z,3.70
2023-02-05T02:22:27.738Z,3.42
2023-02-05T02:25:01.945Z,3.90
2023-02-05T02:27:42.514Z,3.75
2023-02-05T02:30:16.045Z,3.60
2023-02-05T02:32:47.762Z,4.13
2023-02-05T02:35:18.909Z,4.57
2023-02-05T02:37:51.606Z,3.92
2023-02-05T02:40:22.958Z,4.35
2023-02-05T02:42:56.914Z,3.40
2023-02-05T02:45:28.489Z,4.28
2023-02-05T02:47:58.887Z,3.70
2023-02-05T02:50:33.065Z,4.30
2023-02-05T02:53:04.305Z,3.97
2023-02-05T02:55:36.197Z,3.90
2023-02-05T02:58:08.294Z,3.20
2023-02-05T03:00:42.368Z,3.63
2023-02-05T03:03:13.286Z,3.28
2023-02-05T03:05:44.001Z,3.20
2023-02-05T03:08:16.768Z,3.58
2023-02-05T03:10:48.139Z,4.78
2023-02-05T03:13:19.573Z,3.50
2023-02-05T03:15:54.647Z,4.13
2023-02-05T03:18:26.415Z,3.00
2023-02-05T03:20:56.314Z,3.28
2023-02-05T03:23:25.403Z,2.70
2023-02-05T03:25:54.481Z,3.20
2023-02-05T03:28:32.669Z,2.80
2023-02-05T03:31:04.684Z,3.40
2023-02-05T03:33:45.685Z,2.95
2023-02-05T03:38:51.808Z,2.15
2023-02-05T03:41:46.989Z,1.80
2023-02-05T03:44:24.761Z,2.70
2023-02-05T03:47:00.190Z,1.75
2023-02-05T03:49:34.000Z,1.65
2023-02-05T03:52:05.694Z,1.52
2023-02-05T03:54:38.674Z,1.35
2023-02-05T03:57:14.378Z,1.13
2023-02-05T03:59:45.820Z,0.98
2023-02-05T04:02:15.466Z,0.93
2023-02-05T04:04:46.686Z,1.10
2023-02-05T04:07:16.815Z,1.00
2023-02-05T04:09:46.956Z,0.50
2023-02-05T04:12:16.726Z,0.77
2023-02-05T04:14:48.346Z,0.95
2023-02-05T04:17:17.697Z,0.73
2023-02-05T04:19:48.051Z,0.60
2023-02-05T04:22:19.377Z,0.70
2023-02-05T04:24:50.085Z,0.52
2023-02-05T04:27:19.851Z,1.40
2023-02-05T04:29:50.671Z,0.40
2023-02-05T04:32:20.120Z,0.60
2023-02-05T04:34:50.219Z,0.60
2023-02-05T04:37:20.147Z,0.77
2023-02-05T04:39:49.597Z,0.70
2023-02-05T04:42:18.581Z,0.70
2023-02-05T04:44:47.596Z,0.50
2023-02-05T04:47:17.956Z,0.80
2023-02-05T04:49:47.010Z,1.48
2023-02-05T04:52:16.284Z,1.25
2023-02-05T04:54:45.350Z,1.00
2023-02-05T04:57:14.544Z,1.10
2023-02-05T04:59:44.170Z,1.58
2023-02-05T05:02:14.978Z,1.02
2023-02-05T05:04:45.740Z,1.40
2023-02-05T05:07:16.390Z,1.15
2023-02-05T05:09:45.835Z,0.65
2023-02-05T05:12:15.125Z,0.70
2023-02-05T05:14:44.517Z,0.60
2023-02-05T05:17:14.787Z,0.73
2023-02-05T05:19:44.159Z,0.90
2023-02-05T05:22:14.944Z,2.30
2023-02-05T05:24:44.241Z,0.80
2023-02-05T05:27:13.466Z,2.45
2023-02-05T05:29:42.788Z,0.85
2023-02-05T05:32:12.067Z,0.85
2023-02-05T05:34:41.474Z,0.60
2023-02-05T05:37:10.821Z,0.60
2023-02-05T05:39:55.549Z,1.58
2023-02-05T05:42:42.211Z,0.98
2023-02-05T05:45:11.381Z,0.65
2023-02-05T05:47:40.606Z,1.00
2023-02-05T05:50:10.171Z,0.82
2023-02-05T05:52:39.313Z,0.57
2023-02-05T05:55:10.141Z,1.02
2023-02-05T05:57:39.190Z,1.00
2023-02-05T06:00:08.504Z,0.95
2023-02-05T06:02:44.787Z,1.10
2023-02-05T06:05:13.854Z,0.63
2023-02-05T06:07:42.867Z,1.13
2023-02-05T06:10:13.248Z,1.25
2023-02-05T06:12:42.208Z,0.90
2023-02-05T06:15:11.666Z,1.20
2023-02-05T06:17:40.582Z,0.88
2023-02-05T06:20:09.775Z,0.90
2023-02-05T06:22:38.820Z,0.80
2023-02-05T06:25:08.365Z,1.55
2023-02-05T06:27:38.683Z,0.98
2023-02-05T06:30:08.091Z,1.30
2023-02-05T06:32:37.100Z,1.48
2023-02-05T06:35:06.355Z,1.73
2023-02-05T06:37:46.750Z,1.08
2023-02-05T06:40:18.261Z,0.80
2023-02-05T06:42:48.874Z,1.20
2023-02-05T06:45:17.925Z,0.80
2023-02-05T06:47:46.968Z,1.55
2023-02-05T06:50:17.145Z,1.50
2023-02-05T06:52:46.554Z,1.45
2023-02-05T06:55:15.607Z,0.80
2023-02-05T06:57:44.686Z,1.13
2023-02-05T07:00:16.760Z,0.77
2023-02-05T07:02:45.806Z,1.77
2023-02-05T07:05:14.840Z,1.40
2023-02-05T07:07:43.831Z,1.40
2023-02-05T07:10:12.776Z,1.00
2023-02-05T07:12:41.899Z,1.05
2023-02-05T07:15:11.142Z,1.48
2023-02-05T07:17:41.540Z,0.98
2023-02-05T07:20:10.843Z,0.73
2023-02-05T07:22:39.959Z,1.10
2023-02-05T07:25:09.654Z,1.02
2023-02-05T07:27:39.688Z,0.80
2023-02-05T07:30:09.248Z,1.33
2023-02-05T07:32:40.623Z,1.13
2023-02-05T07:35:11.023Z,1.92
2023-02-05T07:37:40.042Z,1.80
2023-02-05T07:40:09.696Z,0.88
2023-02-05T07:42:38.672Z,1.20
2023-02-05T07:45:10.250Z,1.70
2023-02-05T07:47:39.324Z,1.40
2023-02-05T07:50:08.438Z,0.90
2023-02-05T07:52:38.757Z,1.42
2023-02-05T07:55:08.556Z,2.88
2023-02-05T07:57:37.831Z,1.52
2023-02-05T08:00:09.745Z,1.00
2023-02-05T08:02:41.852Z,2.10
2023-02-05T08:05:11.042Z,1.30
2023-02-05T08:07:42.112Z,1.13
2023-02-05T08:10:12.421Z,1.80
2023-02-05T08:12:41.497Z,1.00
2023-02-05T08:15:11.027Z,1.42
2023-02-05T08:17:40.001Z,1.38
2023-02-05T08:20:09.332Z,1.23
2023-02-05T08:22:39.063Z,1.98
2023-02-05T08:25:10.717Z,1.20
2023-02-05T08:27:40.561Z,0.98
2023-02-05T08:30:11.479Z,1.00
2023-02-05T08:32:40.629Z,0.83
2023-02-05T08:35:10.139Z,1.45
2023-02-05T08:37:39.221Z,1.17
2023-02-05T08:40:10.900Z,1.20
2023-02-05T08:45:09.740Z,1.58
2023-02-05T08:47:38.871Z,1.95
2023-02-05T08:50:08.970Z,1.50
2023-02-05T08:52:39.496Z,1.73
2023-02-05T08:55:10.450Z,2.35
2023-02-05T08:57:40.807Z,1.10
2023-02-05T09:00:13.143Z,1.35
2023-02-05T09:02:43.664Z,1.23
2023-02-05T09:05:13.201Z,1.38
2023-02-05T09:07:43.183Z,1.77
2023-02-05T09:10:15.027Z,2.58
2023-02-05T09:12:44.453Z,1.35
2023-02-05T09:15:13.462Z,2.15
2023-02-05T09:17:42.504Z,1.88
2023-02-05T09:20:12.751Z,2.75
2023-02-05T09:22:41.759Z,1.70
2023-02-05T09:25:11.772Z,1.73
2023-02-05T09:27:42.214Z,1.00
2023-02-05T09:30:11.972Z,1.25
2023-02-05T09:32:41.575Z,2.33
2023-02-05T09:35:11.011Z,1.73
2023-02-05T09:37:40.178Z,1.15
2023-02-05T09:40:20.399Z,1.02
2023-02-05T09:42:55.013Z,1.70
2023-02-05T09:45:35.628Z,1.33
2023-02-05T09:48:11.519Z,1.30
2023-02-05T09:50:41.474Z,1.65
2023-02-05T09:53:13.957Z,1.42
2023-02-05T09:55:44.957Z,1.20
2023-02-05T09:58:16.860Z,1.85
2023-02-05T10:00:47.837Z,1.10
2023-02-05T10:03:23.232Z,1.47
2023-02-05T10:06:01.187Z,1.77
2023-02-05T10:08:36.689Z,1.98
2023-02-05T10:11:08.712Z,2.15
2023-02-05T10:16:12.756Z,2.30
2023-02-05T10:18:49.237Z,1.80
2023-02-05T10:21:25.653Z,1.48
2023-02-05T10:24:02.549Z,2.08
2023-02-05T10:26:34.123Z,2.28
2023-02-05T10:29:11.073Z,1.75
2023-02-05T10:31:43.711Z,1.60
2023-02-05T10:34:18.846Z,2.45
2023-02-05T10:36:50.796Z,1.58
2023-02-05T10:39:23.120Z,2.20
2023-02-05T10:41:55.353Z,1.85
2023-02-05T10:44:29.585Z,2.55
2023-02-05T10:47:03.557Z,1.30
2023-02-05T10:49:40.270Z,2.13
2023-02-05T10:52:12.206Z,1.92
2023-02-05T10:57:13.962Z,2.33
2023-02-05T10:59:49.567Z,1.27
2023-02-05T11:02:20.711Z,1.48
2023-02-05T11:04:56.467Z,3.40
2023-02-05T11:07:29.254Z,1.40
2023-02-05T11:09:59.738Z,1.58
2023-02-05T11:12:31.187Z,2.28
2023-02-05T11:15:01.270Z,2.90
2023-02-05T11:17:33.528Z,2.00
2023-02-05T11:20:04.907Z,2.25
2023-02-05T11:22:35.490Z,1.73
2023-02-05T11:25:12.313Z,1.92
2023-02-05T11:27:41.842Z,1.50
2023-02-05T11:30:32.637Z,1.80
2023-02-05T11:33:20.964Z,2.97
2023-02-05T11:35:54.103Z,1.75
2023-02-05T11:38:29.914Z,1.70
2023-02-05T11:41:02.570Z,1.23
2023-02-05T11:43:33.335Z,1.38
2023-02-05T11:46:04.240Z,1.73
2023-02-05T11:48:36.907Z,1.38
2023-02-05T11:51:08.079Z,2.03
2023-02-05T11:53:37.635Z,1.60
2023-02-05T11:56:10.041Z,2.53
2023-02-05T11:58:40.979Z,1.77
2023-02-05T12:01:25.268Z,2.13
2023-02-05T12:04:02.782Z,1.02
2023-02-05T12:06:35.596Z,1.10
2023-02-05T12:09:05.076Z,1.20
2023-02-05T12:11:56.526Z,1.67
2023-02-05T12:14:29.761Z,1.38
2023-02-05T12:17:04.497Z,1.20
2023-02-05T12:19:40.434Z,1.77
2023-02-05T12:22:13.117Z,1.27
2023-02-05T12:24:50.144Z,1.20
2023-02-05T12:27:24.719Z,1.25
2023-02-05T12:30:00.795Z,1.40
2023-02-05T12:32:35.023Z,1.05
2023-02-05T12:35:14.933Z,1.45
2023-02-05T12:37:48.435Z,2.47
2023-02-05T12:40:34.997Z,1.13
2023-02-05T12:43:08.380Z,1.42
2023-02-05T12:45:41.785Z,2.20
2023-02-05T12:48:17.759Z,1.17
2023-02-05T12:51:01.364Z,2.78
2023-02-05T12:53:39.070Z,1.85
2023-02-05T12:56:17.139Z,1.90
2023-02-05T12:58:48.795Z,1.50
2023-02-05T13:01:20.308Z,1.25
2023-02-05T13:03:51.672Z,1.30
2023-02-05T13:06:25.272Z,1.65
2023-02-05T13:08:58.056Z,1.65
2023-02-05T13:11:30.089Z,1.20
2023-02-05T13:14:03.113Z,1.45
2023-02-05T13:16:42.230Z,1.67
2023-02-05T13:19:20.990Z,2.45
2023-02-05T13:22:09.905Z,1.80
2023-02-05T13:24:57.889Z,1.77
2023-02-05T13:27:46.295Z,1.58
2023-02-05T13:30:18.133Z,1.40
2023-02-05T13:35:16.349Z,2.00
2023-02-05T13:37:57.832Z,1.05
2023-02-05T13:40:44.563Z,1.33
2023-02-05T13:43:29.529Z,1.23
2023-02-05T13:46:15.585Z,1.50
2023-02-05T13:49:05.706Z,1.30
2023-02-05T13:51:44.305Z,1.27
2023-02-05T13:54:26.128Z,0.93
2023-02-05T13:57:01.045Z,1.33
2023-02-05T13:59:35.154Z,1.48
2023-02-05T14:02:04.621Z,1.75
2023-02-05T14:04:38.971Z,1.20
2023-02-05T14:07:09.784Z,1.30
2023-02-05T14:09:42.296Z,1.40
2023-02-05T14:12:13.000Z,1.00
2023-02-05T14:14:42.926Z,1.65
2023-02-05T14:17:31.416Z,1.65
2023-02-05T14:20:01.294Z,2.17
2023-02-05T14:22:42.268Z,1.25
2023-02-05T14:25:30.270Z,1.38
2023-02-05T14:28:00.832Z,1.75
2023-02-05T14:30:41.660Z,1.20
2023-02-05T14:33:29.415Z,1.58
2023-02-05T14:35:59.481Z,1.48
2023-02-05T14:38:33.233Z,1.73
2023-02-05T14:41:03.898Z,1.77
2023-02-05T14:43:36.006Z,2.75
2023-02-05T14:46:07.277Z,2.55
2023-02-05T14:48:40.490Z,1.30
2023-02-05T14:51:10.446Z,1.60
2023-02-05T14:53:40.290Z,1.73
2023-02-05T14:56:10.295Z,1.92
2023-02-05T14:58:44.952Z,1.40
2023-02-05T15:01:32.617Z,1.88
2023-02-05T15:04:02.597Z,1.80
2023-02-05T15:06:33.115Z,1.65
2023-02-05T15:09:05.259Z,2.20
2023-02-05T15:11:39.136Z,3.78
2023-02-05T15:14:35.538Z,3.28
2023-02-05T15:17:23.387Z,2.40
2023-02-05T15:19:54.500Z,1.85
2023-02-05T15:22:28.254Z,2.13
2023-02-05T15:25:05.177Z,2.33
2023-02-05T15:27:39.351Z,1.90
2023-02-05T15:30:15.156Z,2.17
2023-02-05T15:32:48.100Z,1.52
2023-02-05T15:35:18.808Z,1.70
2023-02-05T15:37:50.901Z,2.88
2023-02-05T15:42:51.456Z,1.85
2023-02-05T15:45:24.712Z,2.33
2023-02-05T15:48:00.758Z,2.42
2023-02-05T15:50:30.663Z,1.35
2023-02-05T15:53:00.064Z,2.08
2023-02-05T15:55:29.547Z,2.20
2023-02-05T15:58:01.700Z,2.03
2023-02-05T16:00:32.282Z,2.40
2023-02-05T16:03:02.425Z,2.35
2023-02-05T16:05:32.624Z,1.55
2023-02-05T16:08:03.067Z,1.77
2023-02-05T16:10:33.856Z,3.13
2023-02-05T16:13:04.182Z,1.85
2023-02-05T16:15:37.510Z,2.00
2023-02-05T16:18:07.811Z,2.45
2023-02-05T16:20:39.108Z,1.67
2023-02-05T16:23:09.405Z,2.08
2023-02-05T16:25:42.216Z,2.08
2023-02-05T16:28:15.358Z,1.73
2023-02-05T16:30:49.469Z,1.98
2023-02-05T16:33:28.255Z,1.88
2023-02-05T16:35:59.151Z,2.15
2023-02-05T16:38:28.679Z,2.15
2023-02-05T16:40:59.119Z,2.97
2023-02-05T16:43:31.344Z,2.80
2023-02-05T16:46:22.372Z,1.98
2023-02-05T16:48:51.983Z,2.33
2023-02-05T16:51:32.761Z,2.63
2023-02-05T16:54:02.139Z,3.83
2023-02-05T16:56:32.240Z,2.28
2023-02-05T16:59:02.629Z,2.90
2023-02-05T17:01:34.968Z,4.80
2023-02-05T17:04:04.204Z,2.97
2023-02-05T17:06:36.701Z,3.88
2023-02-05T17:09:06.731Z,3.70
2023-02-05T17:11:38.263Z,4.65
2023-02-05T17:14:15.357Z,4.03
2023-02-05T17:16:54.836Z,2.50
2023-02-05T17:19:24.780Z,2.35
2023-02-05T17:22:14.816Z,2.92
2023-02-05T17:24:44.622Z,1.95
2023-02-05T17:27:16.144Z,3.15
2023-02-05T17:29:46.207Z,2.55
2023-02-05T17:32:17.874Z,2.63
2023-02-05T17:34:47.276Z,3.22
2023-02-05T17:37:17.163Z,4.15
2023-02-05T17:39:46.831Z,4.60
2023-02-05T17:42:21.994Z,4.75
2023-02-05T17:44:53.706Z,4.97
2023-02-05T17:47:24.206Z,4.35
2023-02-05T17:49:53.698Z,5.28
2023-02-05T17:52:22.801Z,5.30
2023-02-05T17:54:52.167Z,6.20
2023-02-05T17:57:23.570Z,4.60
2023-02-05T17:59:52.744Z,4.47
2023-02-05T18:02:21.783Z,5.68
2023-02-05T18:04:53.455Z,5.18
2023-02-05T18:07:27.195Z,6.25
2023-02-05T18:09:59.473Z,5.20
2023-02-05T18:12:29.021Z,5.47
2023-02-05T18:14:59.314Z,5.75
2023-02-05T18:17:28.537Z,5.18
2023-02-05T18:19:59.254Z,5.65
2023-02-05T18:22:28.597Z,6.47
2023-02-05T18:24:57.971Z,6.03
2023-02-05T18:27:27.140Z,6.53
2023-02-05T18:29:56.700Z,7.68
2023-02-05T18:32:26.323Z,6.90
2023-02-05T18:34:55.586Z,7.30
2023-02-05T18:37:26.729Z,7.05
2023-02-05T18:39:56.172Z,6.15
2023-02-05T18:42:25.606Z,6.68
2023-02-05T18:44:54.910Z,5.65
2023-02-05T18:47:23.840Z,5.78
2023-02-05T18:49:52.867Z,6.63
2023-02-05T18:52:23.151Z,5.93
2023-02-05T18:54:54.249Z,7.35
2023-02-05T18:57:23.668Z,6.93
2023-02-05T18:59:53.746Z,5.57
2023-02-05T19:02:23.084Z,6.30
2023-02-05T19:04:55.794Z,6.68
2023-02-05T19:07:25.362Z,6.35
2023-02-05T19:09:57.562Z,5.22
2023-02-05T19:12:26.616Z,5.93
2023-02-05T19:14:55.698Z,6.18
2023-02-05T19:17:27.489Z,5.97
2023-02-05T19:22:25.893Z,5.10
2023-02-05T19:24:56.557Z,5.90
2023-02-05T19:27:25.780Z,5.40
2023-02-05T19:29:54.821Z,5.72
2023-02-05T19:32:24.703Z,8.18
2023-02-05T19:34:54.996Z,6.10
2023-02-05T19:37:24.170Z,6.40
2023-02-05T19:39:53.295Z,6.63
2023-02-05T19:42:30.394Z,10.43
2023-02-05T19:44:59.828Z,7.32
2023-02-05T19:47:30.398Z,7.00
2023-02-05T19:49:59.550Z,7.18
2023-02-05T19:52:28.701Z,8.23
2023-02-05T19:54:57.829Z,7.25
2023-02-05T19:57:28.330Z,7.70
2023-02-05T19:59:57.555Z,8.65
2023-02-05T20:02:27.658Z,6.93
2023-02-05T20:04:56.889Z,6.85
2023-02-05T20:07:26.183Z,8.13
2023-02-05T20:09:55.440Z,6.45
2023-02-05T20:12:24.673Z,8.60
2023-02-05T20:14:55.402Z,8.30
2023-02-05T20:17:24.654Z,6.03
2023-02-05T20:20:02.581Z,6.88
2023-02-05T20:22:38.363Z,6.45
2023-02-05T20:25:07.519Z,9.18
2023-02-05T20:27:36.648Z,6.90
2023-02-05T20:30:25.351Z,7.55
2023-02-05T20:32:54.579Z,7.10
2023-02-05T20:35:23.508Z,6.82
2023-02-05T20:37:52.584Z,7.32
2023-02-05T20:40:21.650Z,7.15
2023-02-05T20:42:50.642Z,7.75
2023-02-05T20:45:21.391Z,7.22
2023-02-05T20:47:50.446Z,9.27
2023-02-05T20:50:19.448Z,7.20
2023-02-05T20:52:49.140Z,9.02
2023-02-05T20:55:19.402Z,7.25
2023-02-05T20:57:48.456Z,7.78
2023-02-05T21:00:21.004Z,7.32
2023-02-05T21:02:51.408Z,8.70
2023-02-05T21:05:20.502Z,8.73
2023-02-05T21:07:49.922Z,7.32
2023-02-05T21:10:19.474Z,8.52
2023-02-05T21:12:48.534Z,7.63
2023-02-05T21:15:17.606Z,7.05
2023-02-05T21:17:46.587Z,8.32
2023-02-05T21:20:17.151Z,7.05
2023-02-05T21:22:46.525Z,6.80
2023-02-05T21:25:15.803Z,8.02
2023-02-05T21:27:44.889Z,7.72
2023-02-05T21:30:14.512Z,9.10
2023-02-05T21:32:43.767Z,7.72
2023-02-05T21:35:12.808Z,6.72
2023-02-05T21:37:43.217Z,7.65
2023-02-05T21:40:12.753Z,7.38
2023-02-05T21:42:41.701Z,7.78
2023-02-05T21:45:11.028Z,6.90
2023-02-05T21:47:40.358Z,6.97
2023-02-05T21:52:43.082Z,7.32
2023-02-05T21:55:12.029Z,7.43
2023-02-05T21:57:41.014Z,7.18
2023-02-05T22:00:10.758Z,7.25
2023-02-05T22:02:42.745Z,6.90
2023-02-05T22:05:11.818Z,6.88
2023-02-05T22:07:41.066Z,5.75
2023-02-05T22:10:11.731Z,7.93
2023-02-05T22:12:40.792Z,7.07
2023-02-05T22:15:12.499Z,6.85
2023-02-05T22:20:11.122Z,6.28
2023-02-05T22:22:41.648Z,5.78
2023-02-05T22:25:12.419Z,7.90
2023-02-05T22:27:44.194Z,8.20
2023-02-05T22:30:14.995Z,6.85
2023-02-05T22:32:44.165Z,6.10
2023-02-05T22:35:13.425Z,5.95
2023-02-05T22:37:42.733Z,7.30
2023-02-05T22:40:13.825Z,7.90
2023-02-05T22:42:45.531Z,6.50
2023-02-05T22:45:15.326Z,6.70
2023-02-05T22:47:45.677Z,7.80
2023-02-05T22:50:14.808Z,6.97
2023-02-05T22:52:43.884Z,5.82
2023-02-05T22:55:14.361Z,8.00
2023-02-05T22:57:43.342Z,6.68
2023-02-05T23:00:13.218Z,6.95
2023-02-05T23:02:42.252Z,7.93
2023-02-05T23:05:11.303Z,6.82
2023-02-05T23:07:40.785Z,7.90
2023-02-05T23:10:10.210Z,7.95
2023-02-05T23:12:40.887Z,7.97
2023-02-05T23:15:10.109Z,6.78
2023-02-05T23:17:39.403Z,6.68
2023-02-05T23:20:09.564Z,7.00
2023-02-05T23:22:38.574Z,7.15
2023-02-05T23:25:08.303Z,8.88
2023-02-05T23:27:37.538Z,8.20
2023-02-05T23:30:09.039Z,8.80
2023-02-05T23:32:38.266Z,7.28
2023-02-05T23:35:07.958Z,8.05
2023-02-05T23:37:36.984Z,10.02
2023-02-05T23:40:06.346Z,7.38
2023-02-05T23:42:35.304Z,7.68
2023-02-05T23:45:04.232Z,8.18
2023-02-05T23:47:34.524Z,5.80
2023-02-05T23:50:03.581Z,6.88
2023-02-05T23:52:33.981Z,7.05
2023-02-05T23:55:02.936Z,6.85
2023-02-05T23:57:31.884Z,6.85
